createdAt,value
2023-03-22T00:00:44.881Z,1.63
2023-03-22T00:01:44.853Z,1.62
2023-03-22T00:02:44.883Z,1.62
2023-03-22T00:03:44.801Z,1.62
2023-03-22T00:04:44.749Z,1.66
2023-03-22T00:05:44.747Z,1.64
2023-03-22T00:16:44.347Z,1.58
2023-03-22T00:17:44.326Z,1.59
2023-03-22T00:18:44.326Z,1.59
2023-03-22T02:27:42.109Z,1.26
2023-03-22T02:28:42.088Z,1.23
2023-03-22T02:29:42.114Z,1.24
2023-03-22T02:30:42.052Z,1.24
2023-03-22T02:31:42.061Z,1.23
2023-03-22T02:32:42.072Z,1.23
2023-03-22T06:00:49.210Z,0.89
2023-03-22T06:45:48.556Z,1.26
2023-03-22T06:46:40.996Z,1.26
2023-03-22T06:48:40.924Z,1.35
2023-03-22T06:53:40.660Z,1.73
2023-03-22T06:54:40.643Z,1.61
2023-03-22T06:55:40.633Z,1.56
2023-03-22T06:56:40.503Z,1.54
2023-03-22T06:57:40.521Z,1.51
2023-03-22T06:58:40.472Z,1.48
2023-03-22T06:59:40.515Z,1.45
2023-03-22T07:00:40.620Z,1.43
2023-03-22T07:01:40.376Z,1.38
2023-03-22T07:02:40.295Z,1.31
2023-03-22T07:03:40.271Z,1.25
2023-03-22T07:04:40.301Z,1.27
2023-03-22T07:05:40.187Z,1.25
2023-03-22T07:06:40.132Z,1.24
2023-03-22T07:07:40.106Z,1.20
2023-03-22T07:08:40.082Z,1.15
2023-03-22T07:09:40.092Z,1.16
2023-03-22T07:10:40.282Z,1.08
2023-03-22T07:11:40.000Z,1.05
2023-03-22T07:12:39.905Z,1.05
2023-03-22T07:13:39.861Z,1.04
2023-03-22T07:14:39.856Z,1.02
2023-03-22T07:15:39.859Z,1.02
2023-03-22T07:16:39.980Z,0.98
2023-03-22T07:17:39.868Z,0.95
2023-03-22T07:18:39.865Z,0.92
2023-03-22T07:19:39.752Z,0.90
2023-03-22T07:20:40.060Z,0.90
2023-03-22T07:21:40.030Z,0.88
2023-03-22T07:22:40.701Z,0.88
2023-03-22T07:23:39.629Z,0.85
2023-03-22T07:24:50.320Z,0.84
2023-03-22T07:25:40.557Z,0.88
2023-03-22T07:26:39.527Z,0.82
2023-03-22T07:27:39.451Z,0.77
2023-03-22T07:28:39.435Z,0.75
2023-03-22T07:29:39.431Z,0.70
2023-03-22T07:30:39.723Z,0.69
2023-03-22T07:31:39.544Z,0.67
2023-03-22T07:32:39.392Z,0.65
2023-03-22T07:33:39.280Z,0.65
2023-03-22T07:34:39.237Z,0.64
2023-03-22T07:35:39.259Z,0.62
2023-03-22T07:36:39.220Z,0.60
2023-03-22T07:37:39.197Z,0.74
2023-03-22T07:38:39.173Z,0.77
2023-03-22T07:39:39.096Z,0.78
2023-03-22T07:40:39.471Z,0.71
2023-03-22T07:41:39.061Z,0.70
2023-03-22T07:42:39.765Z,0.77
2023-03-22T07:43:52.380Z,0.73
2023-03-22T07:44:40.456Z,0.71
2023-03-22T07:45:38.972Z,0.63
2023-03-22T07:46:39.012Z,0.62
2023-03-22T07:47:41.436Z,0.57
2023-03-22T07:48:39.179Z,0.52
2023-03-22T07:49:39.210Z,0.50
2023-03-22T07:50:39.396Z,0.50
2023-03-22T07:51:39.494Z,0.52
2023-03-22T07:52:39.283Z,0.50
2023-03-22T07:53:39.281Z,0.52
2023-03-22T07:54:39.329Z,0.50
2023-03-22T07:55:39.380Z,0.51
2023-03-22T07:56:39.378Z,0.52
2023-03-22T07:57:39.437Z,0.50
2023-03-22T07:58:39.440Z,0.51
2023-03-22T07:59:40.265Z,0.50
2023-03-22T08:00:39.677Z,0.50
2023-03-22T08:01:39.583Z,0.52
2023-03-22T08:02:39.614Z,0.50
2023-03-22T08:03:39.598Z,0.51
2023-03-22T08:04:39.596Z,0.52
2023-03-22T08:05:39.749Z,0.51
2023-03-22T08:06:39.721Z,0.50
2023-03-22T08:07:39.627Z,0.50
2023-03-22T08:08:39.605Z,0.50
2023-03-22T08:09:39.642Z,0.51
2023-03-22T08:10:39.926Z,0.51
2023-03-22T08:11:39.744Z,0.56
2023-03-22T08:12:39.665Z,0.59
2023-03-22T08:13:39.711Z,0.56
2023-03-22T08:14:39.723Z,0.60
2023-03-22T08:15:40.072Z,0.62
2023-03-22T08:16:40.018Z,0.60
2023-03-22T08:17:39.790Z,0.62
2023-03-22T08:18:39.973Z,0.65
2023-03-22T08:19:39.863Z,0.67
2023-03-22T08:20:40.107Z,0.66
2023-03-22T08:21:39.905Z,0.70
2023-03-22T08:22:39.924Z,0.72
2023-03-22T08:23:42.211Z,0.79
2023-03-22T08:24:40.036Z,0.78
2023-03-22T08:25:40.041Z,0.71
2023-03-22T08:26:40.071Z,0.72
2023-03-22T08:27:40.061Z,0.73
2023-03-22T08:28:40.068Z,0.77
2023-03-22T08:29:40.184Z,0.83
2023-03-22T08:30:40.492Z,0.86
2023-03-22T08:31:40.501Z,1.12
2023-03-22T08:32:40.211Z,1.06
2023-03-22T08:33:40.264Z,1.13
2023-03-22T08:34:40.318Z,1.25
2023-03-22T08:35:40.524Z,1.43
2023-03-22T08:36:40.579Z,1.68
2023-03-22T08:37:40.388Z,2.02
2023-03-22T08:38:40.393Z,2.28
2023-03-22T08:40:40.482Z,2.93
2023-03-22T08:41:40.460Z,3.30
2023-03-22T08:42:40.480Z,3.50
2023-03-22T08:43:40.483Z,3.91
2023-03-22T08:44:40.438Z,3.97
2023-03-22T08:45:40.777Z,3.88
2023-03-22T08:46:40.415Z,3.90
2023-03-22T08:47:40.421Z,3.95
2023-03-22T08:48:40.427Z,3.95
2023-03-22T08:49:40.421Z,4.06
2023-03-22T08:50:40.424Z,3.22
2023-03-22T08:51:40.408Z,3.64
2023-03-22T08:52:40.405Z,4.04
2023-03-22T08:53:40.390Z,4.01
2023-03-22T08:54:40.318Z,3.95
2023-03-22T08:55:40.622Z,4.07
2023-03-22T08:56:40.336Z,3.86
2023-03-22T08:57:40.411Z,4.01
2023-03-22T08:58:40.323Z,4.07
2023-03-22T08:59:40.286Z,4.08
2023-03-22T09:00:48.466Z,4.12
2023-03-22T09:01:41.420Z,4.13
2023-03-22T09:02:40.242Z,4.17
2023-03-22T09:03:40.195Z,4.25
2023-03-22T09:04:40.190Z,4.40
2023-03-22T09:05:40.411Z,4.48
2023-03-22T09:06:40.548Z,4.68
2023-03-22T09:07:40.083Z,4.09
2023-03-22T09:08:40.002Z,4.46
2023-03-22T09:09:39.993Z,4.43
2023-03-22T09:10:39.993Z,4.49
2023-03-22T09:11:39.928Z,4.49
2023-03-22T09:12:39.857Z,4.52
2023-03-22T09:13:39.817Z,4.59
2023-03-22T09:14:39.768Z,4.64
2023-03-22T09:15:40.129Z,4.70
2023-03-22T09:16:40.149Z,3.73
2023-03-22T09:17:39.733Z,3.25
2023-03-22T09:18:39.694Z,3.27
2023-03-22T09:19:39.729Z,3.67
2023-03-22T09:20:40.005Z,3.82
2023-03-22T09:21:39.721Z,3.90
2023-03-22T09:22:39.618Z,4.01
2023-03-22T09:23:39.615Z,4.13
2023-03-22T09:24:39.631Z,4.10
2023-03-22T09:25:39.835Z,4.22
2023-03-22T09:26:39.608Z,4.23
2023-03-22T09:27:39.543Z,4.26
2023-03-22T09:28:39.574Z,4.35
2023-03-22T09:29:39.545Z,4.29
2023-03-22T09:30:39.851Z,4.04
2023-03-22T09:31:39.676Z,3.76
2023-03-22T09:32:39.574Z,4.03
2023-03-22T09:33:39.538Z,4.24
2023-03-22T09:34:39.507Z,4.49
2023-03-22T09:35:39.776Z,4.77
2023-03-22T09:36:40.024Z,5.03
2023-03-22T09:37:39.510Z,5.18
2023-03-22T09:38:39.531Z,5.25
2023-03-22T09:39:39.535Z,4.93
2023-03-22T09:40:39.637Z,4.82
2023-03-22T09:41:40.055Z,4.71
2023-03-22T09:42:39.554Z,4.52
2023-03-22T09:43:39.565Z,4.37
2023-03-22T09:44:39.561Z,4.55
2023-03-22T09:45:39.920Z,4.10
2023-03-22T09:46:39.669Z,4.12
2023-03-22T09:47:44.799Z,3.89
2023-03-22T09:48:40.617Z,3.84
2023-03-22T09:49:52.610Z,3.08
2023-03-22T09:50:40.539Z,2.99
2023-03-22T09:51:39.596Z,2.93
2023-03-22T09:52:39.522Z,2.91
2023-03-22T09:53:39.420Z,3.06
2023-03-22T09:54:39.377Z,2.37
2023-03-22T09:55:39.511Z,2.68
2023-03-22T09:56:39.297Z,2.76
2023-03-22T09:57:39.252Z,2.55
2023-03-22T09:58:39.262Z,2.41
2023-03-22T09:59:39.165Z,1.79
2023-03-22T10:00:39.654Z,1.57
2023-03-22T10:01:39.340Z,1.45
2023-03-22T10:02:39.242Z,1.44
2023-03-22T10:03:39.623Z,1.41
2023-03-22T10:04:39.521Z,1.26
2023-03-22T10:05:39.479Z,1.27
2023-03-22T10:06:39.245Z,1.18
2023-03-22T10:07:39.214Z,1.13
2023-03-22T10:08:39.274Z,1.13
2023-03-22T10:09:39.289Z,1.02
2023-03-22T10:10:39.282Z,1.10
2023-03-22T10:11:39.302Z,1.06
2023-03-22T10:12:40.018Z,0.90
2023-03-22T10:13:39.313Z,1.09
2023-03-22T10:14:39.317Z,1.26
2023-03-22T10:15:39.640Z,1.40
2023-03-22T10:16:39.379Z,1.50
2023-03-22T10:17:39.394Z,1.46
2023-03-22T10:18:39.397Z,1.44
2023-03-22T10:19:39.413Z,1.42
2023-03-22T10:20:39.375Z,1.37
2023-03-22T10:21:39.419Z,1.38
2023-03-22T10:22:39.514Z,1.27
2023-03-22T10:23:39.457Z,1.41
2023-03-22T10:24:39.482Z,1.30
2023-03-22T10:25:39.688Z,1.31
2023-03-22T10:26:39.456Z,1.33
2023-03-22T10:27:39.490Z,1.31
2023-03-22T10:28:39.460Z,1.29
2023-03-22T10:29:39.520Z,1.38
2023-03-22T10:30:39.751Z,1.47
2023-03-22T10:31:39.605Z,1.43
2023-03-22T10:32:54.801Z,1.38
2023-03-22T10:33:40.482Z,1.38
2023-03-22T10:34:39.480Z,1.35
2023-03-22T10:35:39.696Z,1.39
2023-03-22T10:36:39.368Z,1.43
2023-03-22T10:37:39.283Z,1.32
2023-03-22T10:38:39.268Z,1.37
2023-03-22T10:39:40.052Z,1.36
2023-03-22T10:40:39.182Z,1.27
2023-03-22T10:41:39.119Z,1.25
2023-03-22T10:42:40.069Z,1.29
2023-03-22T10:43:39.115Z,1.23
2023-03-22T10:44:39.068Z,1.28
2023-03-22T10:45:39.460Z,1.28
2023-03-22T10:46:39.110Z,1.34
2023-03-22T10:47:39.525Z,1.27
2023-03-22T10:48:39.141Z,1.53
2023-03-22T10:49:39.096Z,1.96
2023-03-22T10:50:39.081Z,2.55
2023-03-22T10:51:39.092Z,2.48
2023-03-22T10:52:39.553Z,2.23
2023-03-22T10:53:39.096Z,2.56
2023-03-22T10:54:39.135Z,2.41
2023-03-22T10:55:39.469Z,2.54
2023-03-22T10:56:40.029Z,2.58
2023-03-22T10:57:39.120Z,2.57
2023-03-22T10:58:40.025Z,2.61
2023-03-22T10:59:39.180Z,2.49
2023-03-22T11:00:42.221Z,2.55
2023-03-22T11:01:39.287Z,2.49
2023-03-22T11:02:39.252Z,2.46
2023-03-22T11:03:39.031Z,2.49
2023-03-22T11:04:38.990Z,2.45
2023-03-22T11:05:39.222Z,2.37
2023-03-22T11:06:38.916Z,2.22
2023-03-22T11:07:38.864Z,2.09
2023-03-22T11:08:39.115Z,2.07
2023-03-22T11:09:38.761Z,2.21
2023-03-22T11:10:38.837Z,2.13
2023-03-22T11:11:38.749Z,2.00
2023-03-22T11:12:40.104Z,1.96
2023-03-22T11:13:39.021Z,1.96
2023-03-22T11:14:38.591Z,1.93
2023-03-22T11:15:38.796Z,1.91
2023-03-22T11:16:38.569Z,1.88
2023-03-22T11:17:38.493Z,1.95
2023-03-22T11:18:38.409Z,1.97
2023-03-22T11:19:38.397Z,2.08
2023-03-22T11:20:38.670Z,2.17
2023-03-22T11:21:38.304Z,2.17
2023-03-22T11:22:38.268Z,2.28
2023-03-22T11:23:38.400Z,2.20
2023-03-22T11:24:39.046Z,2.11
2023-03-22T11:25:38.228Z,1.83
2023-03-22T11:26:40.858Z,1.20
2023-03-22T11:27:38.105Z,1.34
2023-03-22T11:28:38.104Z,1.29
2023-03-22T11:29:37.997Z,0.69
2023-03-22T11:30:38.020Z,0.46
2023-03-22T11:31:37.968Z,0.73
2023-03-22T11:32:38.014Z,0.63
2023-03-22T11:33:38.571Z,0.65
2023-03-22T11:34:37.824Z,0.64
2023-03-22T11:35:37.787Z,0.62
2023-03-22T11:36:37.792Z,0.93
2023-03-22T11:37:37.664Z,0.91
2023-03-22T11:38:38.084Z,1.03
2023-03-22T11:39:37.577Z,1.24
2023-03-22T11:40:37.682Z,1.14
2023-03-22T11:41:37.572Z,1.00
2023-03-22T11:42:37.491Z,1.04
2023-03-22T11:43:37.614Z,1.16
2023-03-22T11:44:37.398Z,1.22
2023-03-22T11:45:37.593Z,1.28
2023-03-22T11:46:37.367Z,1.38
2023-03-22T11:47:37.310Z,1.52
2023-03-22T11:48:37.356Z,1.63
2023-03-22T11:49:37.187Z,1.63
2023-03-22T11:50:37.181Z,1.63
2023-03-22T11:51:37.136Z,1.71
2023-03-22T11:52:37.035Z,1.70
2023-03-22T11:53:37.054Z,1.67
2023-03-22T11:54:36.965Z,1.67
2023-03-22T11:55:36.928Z,1.70
2023-03-22T11:56:36.961Z,1.76
2023-03-22T11:57:36.911Z,1.87
2023-03-22T11:58:37.044Z,1.94
2023-03-22T11:59:36.810Z,1.98
2023-03-22T12:00:36.765Z,2.04
2023-03-22T12:01:36.741Z,2.08
2023-03-22T12:02:36.777Z,2.13
2023-03-22T12:03:39.057Z,2.19
2023-03-22T12:04:36.671Z,2.23
2023-03-22T12:05:36.631Z,2.26
2023-03-22T12:06:36.646Z,2.28
2023-03-22T12:07:36.614Z,2.27
2023-03-22T12:08:36.507Z,2.39
2023-03-22T12:09:36.456Z,2.44
2023-03-22T12:10:36.420Z,2.45
2023-03-22T12:11:36.433Z,2.39
2023-03-22T12:12:36.326Z,2.54
2023-03-22T12:13:36.659Z,2.54
2023-03-22T12:14:36.238Z,2.49
2023-03-22T12:15:36.214Z,2.63
2023-03-22T12:16:36.278Z,2.67
2023-03-22T12:17:36.217Z,2.65
2023-03-22T12:18:36.048Z,2.64
2023-03-22T12:19:36.004Z,2.65
2023-03-22T12:20:35.984Z,2.66
2023-03-22T12:21:35.954Z,2.67
2023-03-22T12:22:35.900Z,2.71
2023-03-22T12:23:35.895Z,2.69
2023-03-22T12:24:35.826Z,2.69
2023-03-22T12:25:35.730Z,2.71
2023-03-22T12:26:35.676Z,2.73
2023-03-22T12:27:35.719Z,2.70
2023-03-22T12:28:36.105Z,2.70
2023-03-22T12:29:35.630Z,2.71
2023-03-22T12:30:35.539Z,2.75
2023-03-22T12:31:35.523Z,2.76
2023-03-22T12:32:35.492Z,2.77
2023-03-22T12:33:35.601Z,2.90
2023-03-22T12:34:35.440Z,3.02
2023-03-22T12:35:35.496Z,2.98
2023-03-22T12:36:35.290Z,2.90
2023-03-22T12:37:35.214Z,3.08
2023-03-22T12:38:35.559Z,3.16
2023-03-22T12:39:35.164Z,3.15
2023-03-22T12:40:35.101Z,3.19
2023-03-22T12:41:35.041Z,3.21
2023-03-22T12:42:40.677Z,3.15
2023-03-22T12:43:36.116Z,3.16
2023-03-22T12:44:34.913Z,3.18
2023-03-22T12:45:34.878Z,3.22
2023-03-22T12:46:34.880Z,3.27
2023-03-22T12:47:34.891Z,3.34
2023-03-22T12:48:34.913Z,3.29
2023-03-22T12:49:34.715Z,3.36
2023-03-22T12:50:34.651Z,3.35
2023-03-22T12:51:34.672Z,3.39
2023-03-22T12:52:44.772Z,3.43
2023-03-22T12:53:35.565Z,3.44
2023-03-22T12:54:34.570Z,3.45
2023-03-22T12:55:34.476Z,3.46
2023-03-22T12:56:34.418Z,3.48
2023-03-22T12:57:34.394Z,3.47
2023-03-22T12:58:34.387Z,3.48
2023-03-22T12:59:34.343Z,3.53
2023-03-22T13:00:34.290Z,3.47
2023-03-22T13:01:34.279Z,3.52
2023-03-22T13:02:34.255Z,3.55
2023-03-22T13:03:34.434Z,3.55
2023-03-22T13:04:34.247Z,3.48
2023-03-22T13:05:34.279Z,3.53
2023-03-22T13:06:34.292Z,3.50
2023-03-22T13:07:34.279Z,3.52
2023-03-22T13:08:34.295Z,3.50
2023-03-22T13:09:34.313Z,3.53
2023-03-22T13:10:34.340Z,3.43
2023-03-22T13:11:34.306Z,3.44
2023-03-22T13:12:34.329Z,3.48
2023-03-22T13:13:34.359Z,3.46
2023-03-22T13:14:34.377Z,3.45
2023-03-22T13:15:41.831Z,3.45
2023-03-22T13:16:35.354Z,3.45
2023-03-22T13:17:34.319Z,3.46
2023-03-22T13:18:34.262Z,3.45
2023-03-22T13:19:34.249Z,3.47
2023-03-22T13:20:34.236Z,3.47
2023-03-22T13:21:34.960Z,3.49
2023-03-22T13:22:34.102Z,3.51
2023-03-22T13:23:34.093Z,3.46
2023-03-22T13:24:34.031Z,3.50
2023-03-22T13:25:34.016Z,3.52
2023-03-22T13:26:34.018Z,3.48
2023-03-22T13:27:34.017Z,3.39
2023-03-22T13:28:34.062Z,3.35
2023-03-22T13:29:34.104Z,3.35
2023-03-22T13:30:34.071Z,3.39
2023-03-22T13:31:34.117Z,3.39
2023-03-22T13:32:34.139Z,3.36
2023-03-22T13:33:34.098Z,3.38
2023-03-22T13:34:34.586Z,3.40
2023-03-22T13:35:34.111Z,3.33
2023-03-22T13:36:34.143Z,3.43
2023-03-22T13:37:34.119Z,3.40
2023-03-22T13:38:34.166Z,3.33
2023-03-22T13:39:34.170Z,3.34
2023-03-22T13:40:34.170Z,3.31
2023-03-22T13:41:34.159Z,3.29
2023-03-22T13:42:34.103Z,3.30
2023-03-22T13:43:34.177Z,3.30
2023-03-22T13:44:34.187Z,3.36
2023-03-22T13:45:34.204Z,3.34
2023-03-22T13:46:34.240Z,3.31
2023-03-22T13:47:34.255Z,3.24
2023-03-22T13:48:36.161Z,3.25
2023-03-22T13:49:34.264Z,3.27
2023-03-22T13:50:34.234Z,3.33
2023-03-22T13:51:34.297Z,3.29
2023-03-22T13:52:34.248Z,3.26
2023-03-22T13:53:34.281Z,3.29
2023-03-22T13:54:34.311Z,3.35
2023-03-22T13:55:34.321Z,3.34
2023-03-22T13:56:34.391Z,3.41
2023-03-22T13:57:34.371Z,3.44
2023-03-22T13:58:34.391Z,3.62
2023-03-22T13:59:34.619Z,3.78
2023-03-22T14:00:34.408Z,3.73
2023-03-22T14:01:34.422Z,3.85
2023-03-22T14:02:34.464Z,3.81
2023-03-22T14:03:34.575Z,3.78
2023-03-22T14:04:34.436Z,3.83
2023-03-22T14:05:34.498Z,4.02
2023-03-22T14:06:34.506Z,4.18
2023-03-22T14:07:34.540Z,4.32
2023-03-22T14:08:34.465Z,4.40
2023-03-22T14:09:34.547Z,4.42
2023-03-22T14:10:34.511Z,4.26
2023-03-22T14:11:34.537Z,4.42
2023-03-22T14:12:34.539Z,4.88
2023-03-22T14:13:34.624Z,4.72
2023-03-22T14:14:34.622Z,4.83
2023-03-22T14:15:34.624Z,4.84
2023-03-22T14:16:34.570Z,4.93
2023-03-22T14:17:34.649Z,5.14
2023-03-22T14:18:34.677Z,5.34
2023-03-22T14:19:34.686Z,5.37
2023-03-22T14:20:34.605Z,5.62
2023-03-22T14:21:34.650Z,5.71
2023-03-22T14:46:02.496Z,0.50
2023-03-22T14:47:02.538Z,0.50
2023-03-22T14:48:02.539Z,0.50
2023-03-22T14:49:02.592Z,0.50
2023-03-22T14:50:02.630Z,0.50
2023-03-22T14:51:02.639Z,0.59
2023-03-22T14:52:04.410Z,0.69
2023-03-22T14:53:02.717Z,0.70
2023-03-22T14:54:02.788Z,0.71
2023-03-22T14:55:02.769Z,0.77
2023-03-22T14:56:02.798Z,0.85
2023-03-22T14:59:02.873Z,1.41
2023-03-22T15:00:03.389Z,1.41
2023-03-22T15:01:02.890Z,1.09
2023-03-22T15:02:03.092Z,1.15
2023-03-22T15:03:02.923Z,1.39
2023-03-22T15:04:03.751Z,1.54
2023-03-22T15:06:02.964Z,1.35
2023-03-22T15:07:02.972Z,1.02
2023-03-22T15:08:03.020Z,1.32
2023-03-22T15:09:03.038Z,0.75
2023-03-22T15:10:03.013Z,0.34
2023-03-22T15:11:03.052Z,0.34
2023-03-22T15:13:03.085Z,0.59
2023-03-22T15:15:03.157Z,0.85
2023-03-22T15:16:03.434Z,0.94
2023-03-22T15:17:03.145Z,0.56
2023-03-22T15:18:03.138Z,0.42
2023-03-22T15:23:03.239Z,0.90
2023-03-22T15:24:03.243Z,0.82
2023-03-22T15:25:03.279Z,0.83
2023-03-22T15:26:03.408Z,0.70
2023-03-22T15:27:03.403Z,1.03
2023-03-22T15:28:03.400Z,0.62
2023-03-22T15:29:03.429Z,0.81
2023-03-22T15:30:03.491Z,1.12
2023-03-22T15:31:03.509Z,1.36
2023-03-22T15:32:03.531Z,1.02
2023-03-22T15:33:03.557Z,0.87
2023-03-22T15:34:03.625Z,0.88
2023-03-22T15:35:03.681Z,0.79
2023-03-22T15:41:03.874Z,1.55
2023-03-22T15:42:03.927Z,1.68
2023-03-22T15:43:03.998Z,1.67
2023-03-22T15:44:04.041Z,1.14
2023-03-22T15:52:04.306Z,0.70
2023-03-22T15:53:04.371Z,0.63
2023-03-22T15:54:04.370Z,0.51
2023-03-22T15:55:04.397Z,0.54
2023-03-22T15:56:04.436Z,0.64
2023-03-22T15:57:04.492Z,0.49
2023-03-22T15:58:04.505Z,0.45
2023-03-22T15:59:04.506Z,0.44
2023-03-22T16:00:04.573Z,0.53
2023-03-22T16:01:04.666Z,0.86
2023-03-22T16:02:04.624Z,1.83
2023-03-22T16:03:04.710Z,3.03
2023-03-22T16:04:04.705Z,3.85
2023-03-22T16:05:04.754Z,4.78
2023-03-22T16:06:04.758Z,4.55
2023-03-22T16:07:04.807Z,6.27
2023-03-22T16:08:04.841Z,7.71
2023-03-22T16:09:05.456Z,6.54
2023-03-22T16:10:04.906Z,8.98
2023-03-22T16:11:04.942Z,9.23
2023-03-22T16:12:04.972Z,9.32
2023-03-22T16:13:05.027Z,9.97
2023-03-22T16:14:05.021Z,9.83
2023-03-22T16:15:05.200Z,8.53
2023-03-22T16:16:05.153Z,9.34
2023-03-22T16:17:05.153Z,9.14
2023-03-22T16:18:05.186Z,11.86
2023-03-22T16:19:05.221Z,11.25
2023-03-22T16:20:05.278Z,12.12
2023-03-22T16:21:05.328Z,12.79
2023-03-22T16:22:05.449Z,10.89
2023-03-22T16:25:05.580Z,15.58
2023-03-22T16:27:05.568Z,18.76
2023-03-22T16:28:05.596Z,20.62
2023-03-22T16:29:05.638Z,20.70
2023-03-22T16:30:05.688Z,24.32
2023-03-22T16:31:05.794Z,23.56
2023-03-22T16:34:05.830Z,20.25
2023-03-22T16:35:05.889Z,17.78
2023-03-22T16:36:06.362Z,16.59
2023-03-22T16:37:05.966Z,14.73
2023-03-22T16:38:06.063Z,14.87
2023-03-22T16:39:06.075Z,16.38
2023-03-22T16:40:06.077Z,15.25
2023-03-22T16:41:06.182Z,15.16
2023-03-22T16:42:06.236Z,17.76
2023-03-22T16:43:06.237Z,18.48
2023-03-22T16:44:06.320Z,16.67
2023-03-22T16:45:06.357Z,16.92
2023-03-22T16:46:06.455Z,16.51
2023-03-22T16:47:06.476Z,13.42
2023-03-22T16:48:06.503Z,12.44
2023-03-22T16:49:06.524Z,12.34
2023-03-22T16:50:06.603Z,13.21
2023-03-22T16:51:06.630Z,11.64
2023-03-22T16:52:06.711Z,12.21
2023-03-22T16:53:06.767Z,13.11
2023-03-22T16:54:06.771Z,15.07
2023-03-22T16:55:06.842Z,14.87
2023-03-22T16:56:06.916Z,14.00
2023-03-22T16:57:06.958Z,13.48
2023-03-22T16:58:07.015Z,14.74
2023-03-22T16:59:07.061Z,13.61
2023-03-22T17:00:07.273Z,12.30
2023-03-22T17:01:07.177Z,12.21
2023-03-22T17:02:07.234Z,12.27
2023-03-22T17:03:07.306Z,11.95
2023-03-22T17:04:07.353Z,11.17
2023-03-22T17:05:07.483Z,11.99
2023-03-22T17:06:07.439Z,12.63
2023-03-22T17:07:07.494Z,12.97
2023-03-22T17:08:07.558Z,12.87
2023-03-22T17:09:07.612Z,12.24
2023-03-22T17:10:07.695Z,11.54
2023-03-22T17:11:08.204Z,11.12
2023-03-22T17:12:07.790Z,10.85
2023-03-22T17:13:07.840Z,9.43
2023-03-22T17:14:07.883Z,11.05
2023-03-22T17:15:07.973Z,11.32
2023-03-22T17:16:08.092Z,12.03
2023-03-22T17:17:08.089Z,12.45
2023-03-22T17:18:08.141Z,11.77
2023-03-22T17:19:08.414Z,10.95
2023-03-22T17:20:08.279Z,10.56
2023-03-22T17:21:08.292Z,10.84
2023-03-22T17:22:08.341Z,10.31
2023-03-22T17:23:08.408Z,10.51
2023-03-22T17:24:08.473Z,11.53
2023-03-22T17:25:08.510Z,11.15
2023-03-22T17:26:08.566Z,12.00
2023-03-22T17:27:08.627Z,12.06
2023-03-22T17:28:08.666Z,11.09
2023-03-22T17:29:08.712Z,11.51
2023-03-22T17:30:08.789Z,11.24
2023-03-22T17:31:08.876Z,10.52
2023-03-22T17:32:12.704Z,10.89
2023-03-22T17:33:10.122Z,10.92
2023-03-22T17:34:08.973Z,11.05
2023-03-22T17:37:08.969Z,11.16
2023-03-22T17:38:09.330Z,11.85
2023-03-22T17:39:32.386Z,12.53
2023-03-22T17:41:09.364Z,12.54
2023-03-22T17:42:09.231Z,12.05
2023-03-22T17:43:09.088Z,12.42
2023-03-22T17:44:09.093Z,12.91
2023-03-22T17:45:10.011Z,13.09
2023-03-22T17:46:38.308Z,13.88
2023-03-22T17:48:10.135Z,13.92
2023-03-22T17:52:09.130Z,11.96
2023-03-22T17:53:20.990Z,11.80
2023-03-22T17:54:51.784Z,11.22
2023-03-22T17:59:09.262Z,12.98
2023-03-22T18:00:09.261Z,13.97
2023-03-22T18:01:09.339Z,14.36
2023-03-22T18:02:11.837Z,15.12
2023-03-22T18:03:09.488Z,15.16
2023-03-22T18:04:09.330Z,15.51
2023-03-22T18:05:09.339Z,15.90
2023-03-22T18:06:09.363Z,16.87
2023-03-22T18:07:09.380Z,17.47
2023-03-22T18:08:26.208Z,17.94
2023-03-22T18:09:10.419Z,18.00
2023-03-22T18:10:09.416Z,18.19
2023-03-22T18:11:09.425Z,18.65
2023-03-22T18:12:09.451Z,18.89
2023-03-22T18:13:09.478Z,18.89
2023-03-22T18:14:20.969Z,18.00
2023-03-22T18:15:10.456Z,18.00
2023-03-22T18:19:09.525Z,17.36
2023-03-22T18:20:20.775Z,17.94
2023-03-22T18:21:10.533Z,17.97
2023-03-22T18:22:09.555Z,18.15
2023-03-22T18:23:09.552Z,17.60
2023-03-22T18:24:09.612Z,16.94
2023-03-22T18:26:22.199Z,17.51
2023-03-22T18:27:11.494Z,17.53
2023-03-22T18:31:09.744Z,16.03
2023-03-22T18:33:09.713Z,16.95
2023-03-22T18:34:09.755Z,16.95
2023-03-22T18:35:09.786Z,18.30
2023-03-22T18:38:09.858Z,18.26
2023-03-22T18:40:45.318Z,18.63
2023-03-22T18:41:34.499Z,18.65
2023-03-22T18:42:18.956Z,18.68
2023-03-22T18:43:10.893Z,18.71
2023-03-22T18:44:09.882Z,18.98
2023-03-22T18:45:10.615Z,19.31
2023-03-22T18:46:19.068Z,18.69
2023-03-22T18:47:11.020Z,18.72
2023-03-22T18:48:09.990Z,19.19
2023-03-22T18:49:09.992Z,19.94
2023-03-22T18:50:10.033Z,21.06
2023-03-22T18:53:18.438Z,22.80
2023-03-22T18:54:11.044Z,22.85
2023-03-22T18:59:10.102Z,20.70
2023-03-22T19:00:10.125Z,21.02
2023-03-22T19:01:10.155Z,20.92
2023-03-22T19:02:15.986Z,20.84
2023-03-22T19:03:11.157Z,20.88
2023-03-22T19:04:10.205Z,21.02
2023-03-22T19:05:10.195Z,21.28
2023-03-22T19:06:10.211Z,21.92
2023-03-22T19:07:19.871Z,22.57
2023-03-22T19:08:25.724Z,20.92
2023-03-22T19:09:11.252Z,20.96
2023-03-22T19:10:10.252Z,21.30
2023-03-22T19:11:10.281Z,21.79
2023-03-22T19:12:10.285Z,22.67
2023-03-22T19:13:11.256Z,23.73
2023-03-22T19:15:03.057Z,24.43
2023-03-22T19:15:34.414Z,24.47
2023-03-22T19:16:11.364Z,24.50
2023-03-22T19:17:10.378Z,24.66
2023-03-22T19:18:10.410Z,24.87
2023-03-22T19:19:10.404Z,25.00
2023-03-22T19:20:10.445Z,25.28
2023-03-22T19:21:17.631Z,25.18
2023-03-22T19:22:11.508Z,25.23
2023-03-22T19:23:10.484Z,25.39
2023-03-22T19:24:10.490Z,25.46
2023-03-22T19:25:10.495Z,25.64
2023-03-22T19:26:10.553Z,25.92
2023-03-22T19:29:10.605Z,24.68
2023-03-22T19:30:10.631Z,24.24
2023-03-22T19:31:10.661Z,24.43
2023-03-22T19:36:10.871Z,24.03
2023-03-22T19:37:10.934Z,23.81
2023-03-22T19:38:10.987Z,23.80
2023-03-22T19:39:13.715Z,23.95
2023-03-22T19:41:13.966Z,23.96
2023-03-22T19:43:11.132Z,24.11
2023-03-22T19:44:11.142Z,23.95
2023-03-22T19:45:11.190Z,23.63
2023-03-22T19:46:11.202Z,23.64
2023-03-22T19:47:13.826Z,23.32
2023-03-22T19:48:11.233Z,23.36
2023-03-22T19:49:11.236Z,22.87
2023-03-22T19:50:11.283Z,21.91
2023-03-22T19:51:11.288Z,21.48
2023-03-22T19:52:11.321Z,21.41
2023-03-22T19:53:51.725Z,21.27
2023-03-22T19:54:27.990Z,21.32
2023-03-22T19:55:12.386Z,21.33
2023-03-22T19:56:11.400Z,21.44
2023-03-22T19:57:11.417Z,21.49
2023-03-22T19:58:11.450Z,20.84
2023-03-22T19:59:11.852Z,20.92
2023-03-22T20:00:44.370Z,20.95
2023-03-22T20:01:12.492Z,20.99
2023-03-22T20:04:11.550Z,21.07
2023-03-22T20:05:17.021Z,21.12
2023-03-22T20:06:12.588Z,21.00
2023-03-22T20:07:11.606Z,21.00
2023-03-22T20:08:11.727Z,20.92
2023-03-22T20:09:11.663Z,21.31
2023-03-22T20:10:11.702Z,21.41
2023-03-22T20:12:11.696Z,21.74
2023-03-22T20:13:11.746Z,21.76
2023-03-22T20:16:11.776Z,21.24
2023-03-22T20:17:15.188Z,21.36
2023-03-22T20:18:12.797Z,21.39
2023-03-22T20:19:11.826Z,21.49
2023-03-22T20:20:11.872Z,21.60
2023-03-22T20:21:11.855Z,21.74
2023-03-22T20:22:11.905Z,21.57
2023-03-22T20:23:11.928Z,21.82
2023-03-22T20:29:12.050Z,21.62
2023-03-22T20:30:12.087Z,21.54
2023-03-22T20:31:12.153Z,21.07
2023-03-22T20:32:12.214Z,21.37
2023-03-22T20:33:12.286Z,21.19
2023-03-22T20:34:12.375Z,21.19
2023-03-22T20:35:12.403Z,21.16
2023-03-22T20:36:12.495Z,20.93
2023-03-22T20:37:12.580Z,21.13
2023-03-22T20:38:12.634Z,20.76
2023-03-22T20:39:12.669Z,20.53
2023-03-22T20:40:12.789Z,20.64
2023-03-22T20:41:12.824Z,20.35
2023-03-22T20:42:12.919Z,19.77
2023-03-22T20:43:12.976Z,19.34
2023-03-22T20:44:13.073Z,18.43
2023-03-22T20:45:13.111Z,17.91
2023-03-22T20:46:13.208Z,17.34
2023-03-22T20:47:13.264Z,17.21
2023-03-22T20:48:13.374Z,17.16
2023-03-22T20:49:13.432Z,17.09
2023-03-22T20:50:13.498Z,16.46
2023-03-22T20:51:13.564Z,16.83
2023-03-22T20:52:13.605Z,16.99
2023-03-22T20:53:13.685Z,16.98
2023-03-22T20:54:13.771Z,16.87
2023-03-22T20:55:13.876Z,16.96
2023-03-22T20:56:13.935Z,17.31
2023-03-22T20:57:13.980Z,17.03
2023-03-22T20:58:14.072Z,16.96
2023-03-22T20:59:14.139Z,16.79
2023-03-22T21:00:14.203Z,17.10
2023-03-22T21:01:14.301Z,17.46
2023-03-22T21:02:14.359Z,17.21
2023-03-22T21:03:14.471Z,16.65
2023-03-22T21:04:14.525Z,16.85
2023-03-22T21:05:14.583Z,16.59
2023-03-22T21:06:14.650Z,16.55
2023-03-22T21:07:14.746Z,16.76
2023-03-22T21:08:14.986Z,16.62
2023-03-22T21:09:14.968Z,16.53
2023-03-22T21:10:14.953Z,16.58
2023-03-22T21:11:15.013Z,16.69
2023-03-22T21:12:15.102Z,16.73
2023-03-22T21:13:15.201Z,16.27
2023-03-22T21:14:15.231Z,16.25
2023-03-22T21:15:15.340Z,16.52
2023-03-22T21:16:15.380Z,16.39
2023-03-22T21:17:15.483Z,16.35
2023-03-22T21:18:15.580Z,16.28
2023-03-22T21:19:16.903Z,16.37
2023-03-22T21:20:26.973Z,16.37
2023-03-22T21:21:16.727Z,16.38